createdAt,value
2019-05-07T00:03:37.104Z,93
2019-05-07T00:08:33.945Z,92
2019-05-07T00:13:33.040Z,92.4
2019-05-07T00:18:27.758Z,92.7
2019-05-07T00:23:24.573Z,91.7
2019-05-07T00:28:22.963Z,91.6
2019-05-07T00:33:18.285Z,91.7
2019-05-07T00:38:15.053Z,92.2
2019-05-07T00:43:12.118Z,92.5
2019-05-07T00:48:08.948Z,91.8
2019-05-07T00:53:05.869Z,92.2
2019-05-07T00:58:02.533Z,92.3
2019-05-07T01:02:59.249Z,92.9
2019-05-07T01:07:56.012Z,92.5
2019-05-07T01:12:53.203Z,92.7
2019-05-07T01:17:51.852Z,92
2019-05-07T01:22:46.521Z,92.5
2019-05-07T01:27:43.440Z,92.8
2019-05-07T01:32:42.330Z,92.9
2019-05-07T01:37:37.417Z,93
2019-05-07T01:42:36.551Z,92.5
2019-05-07T01:47:33.114Z,92.5
2019-05-07T01:52:28.144Z,93.2
2019-05-07T01:57:25.087Z,93.2
2019-05-07T02:02:22.841Z,92.6
2019-05-07T02:07:18.871Z,93.5
2019-05-07T02:12:15.830Z,93.3
2019-05-07T02:17:13.580Z,93.5
2019-05-07T02:22:09.666Z,93.1
2019-05-07T02:27:06.446Z,92.5
2019-05-07T02:32:04.585Z,93.3
2019-05-07T02:36:59.574Z,93.6
2019-05-07T02:41:56.656Z,93.6
2019-05-07T02:46:53.268Z,93.6
2019-05-07T02:51:52.947Z,94.2
2019-05-07T02:56:46.866Z,93.5
2019-05-07T03:01:43.689Z,93.9
2019-05-07T03:06:43.980Z,94.3
2019-05-07T03:11:37.523Z,92.9
2019-05-07T03:16:42.454Z,93.7
2019-05-07T03:21:32.839Z,94
2019-05-07T03:26:28.066Z,94
2019-05-07T03:31:26.336Z,94
2019-05-07T03:36:26.066Z,94.2
2019-05-07T03:41:18.726Z,94
2019-05-07T03:46:15.571Z,94
2019-05-07T03:51:13.135Z,93.8
2019-05-07T03:56:09.301Z,93.6
2019-05-07T04:01:06.299Z,93.1
2019-05-07T04:06:03.934Z,92.7
2019-05-07T04:11:03.166Z,92.1
2019-05-07T04:15:57.438Z,89.9
2019-05-07T04:20:54.676Z,89.3
2019-05-07T04:25:52.938Z,86.8
2019-05-07T04:30:48.945Z,87.3
2019-05-07T04:35:46.234Z,84.3
2019-05-07T04:40:43.878Z,82.2
2019-05-07T04:45:43.211Z,82.7
2019-05-07T04:50:43.337Z,82.6
2019-05-07T04:55:35.483Z,81.1
2019-05-07T05:00:33.538Z,80.4
2019-05-07T05:05:32.711Z,80
2019-05-07T05:10:27.014Z,78.9
2019-05-07T05:15:24.269Z,79.6
2019-05-07T05:20:22.153Z,80.2
2019-05-07T05:25:17.790Z,80.5
2019-05-07T05:30:14.736Z,80.2
2019-05-07T05:35:12.600Z,80.5
2019-05-07T05:40:09.024Z,79.1
2019-05-07T05:45:05.883Z,77.7
2019-05-07T05:50:02.505Z,75.7
2019-05-07T05:54:59.165Z,75.2
2019-05-07T05:59:56.105Z,75.8
2019-05-07T06:04:52.991Z,77.3
2019-05-07T06:09:49.805Z,76
2019-05-07T06:14:46.530Z,76.6
2019-05-07T06:19:43.851Z,74.1
2019-05-07T06:24:42.638Z,77.2
2019-05-07T06:29:37.469Z,74.6
2019-05-07T06:34:34.750Z,72.5
2019-05-07T06:39:32.749Z,71.8
2019-05-07T06:44:29.240Z,70.9
2019-05-07T06:49:26.521Z,70.2
2019-05-07T06:54:23.828Z,70.3
2019-05-07T06:59:22.445Z,69.8
2019-05-07T07:04:18.003Z,69.3
2019-05-07T07:09:14.917Z,66.2
2019-05-07T07:14:12.390Z,68.1
2019-05-07T07:19:09.058Z,67.4
2019-05-07T07:24:05.967Z,65.1
2019-05-07T07:29:03.049Z,62.4
2019-05-07T07:34:02.199Z,63
2019-05-07T07:38:57.480Z,62.2
2019-05-07T07:43:54.884Z,59
2019-05-07T07:49:06.354Z,57.6
2019-05-07T07:53:51.814Z,57.6
2019-05-07T07:58:46.857Z,60.7
2019-05-07T08:03:43.663Z,60.1
2019-05-07T08:08:42.253Z,62.2
2019-05-07T08:13:36.909Z,62.3
2019-05-07T08:18:33.655Z,63.5
2019-05-07T08:23:31.913Z,63
2019-05-07T08:28:27.239Z,62.7
2019-05-07T08:33:23.951Z,63.1
2019-05-07T08:38:21.893Z,63
2019-05-07T08:43:17.714Z,63.7
2019-05-07T08:48:14.622Z,64.2
2019-05-07T08:53:13.158Z,65.7
2019-05-07T08:58:08.428Z,64
2019-05-07T09:03:18.530Z,60.1
2019-05-07T09:08:03.091Z,62.2
2019-05-07T09:13:02.575Z,59.2
2019-05-07T09:17:57.816Z,63
2019-05-07T09:22:54.532Z,63.9
2019-05-07T09:27:52.342Z,63.3
2019-05-07T09:32:48.037Z,64.1
2019-05-07T09:37:44.768Z,63.5
2019-05-07T09:42:42.253Z,61.4
2019-05-07T09:47:41.603Z,60
2019-05-07T09:52:36.570Z,63.2
2019-05-07T09:57:34.695Z,63.5
2019-05-07T10:02:31.969Z,62.6
2019-05-07T10:07:27.369Z,64.2
2019-05-07T10:12:24.423Z,62.8
2019-05-07T10:17:22.369Z,67.9
2019-05-07T10:22:18.008Z,65.5
2019-05-07T10:27:15.060Z,66.1
2019-05-07T10:32:12.781Z,63.5
2019-05-07T10:37:08.847Z,62.8
2019-05-07T10:42:05.832Z,63
2019-05-07T10:47:02.727Z,63.1
2019-05-07T10:51:59.543Z,63.5
2019-05-07T10:56:56.565Z,66.1
2019-05-07T11:01:53.304Z,65
2019-05-07T11:06:52.235Z,63.9
2019-05-07T11:11:47.293Z,63.6
2019-05-07T11:16:43.607Z,65.6
2019-05-07T11:21:41.753Z,65.9
2019-05-07T11:26:37.123Z,65.3
2019-05-07T11:31:34.229Z,64.8
2019-05-07T11:36:31.949Z,64.5
2019-05-07T11:41:28.601Z,67.2
2019-05-07T11:46:25.833Z,67.6
2019-05-07T11:51:23.150Z,68.1
2019-05-07T11:56:19.732Z,68.4
2019-05-07T12:01:16.399Z,70.6
2019-05-07T12:06:13.274Z,70.2
2019-05-07T12:11:11.877Z,71.4
2019-05-07T12:16:07.056Z,72.4
2019-05-07T12:21:16.697Z,71.3
2019-05-07T12:26:02.202Z,71.4
2019-05-07T12:30:57.152Z,72
2019-05-07T12:35:54.162Z,72.7
2019-05-07T12:40:52.361Z,73.9
2019-05-07T12:45:47.752Z,74.7
2019-05-07T12:50:44.387Z,76.4
2019-05-07T12:55:42.830Z,76.9
2019-05-07T13:00:37.955Z,76.3
2019-05-07T13:05:34.910Z,74.8
2019-05-07T13:10:32.459Z,75.6
2019-05-07T13:15:28.925Z,76.8
2019-05-07T13:20:25.877Z,78
2019-05-07T13:25:27.703Z,76.3
2019-05-07T13:30:19.590Z,77.5
2019-05-07T13:35:16.619Z,77.6
2019-05-07T13:40:13.561Z,77.7
2019-05-07T13:45:11.928Z,76.3
2019-05-07T13:50:07.463Z,77.7
2019-05-07T13:55:04.406Z,77.9
2019-05-07T14:00:02.326Z,77.5
2019-05-07T14:04:58.459Z,77
2019-05-07T14:09:55.301Z,77.1
2019-05-07T14:14:52.986Z,76.9
2019-05-07T14:19:48.923Z,78.9
2019-05-07T14:24:45.694Z,78.7
2019-05-07T14:29:42.578Z,79.6
2019-05-07T14:34:39.703Z,79.9
2019-05-07T14:39:36.600Z,79.4
2019-05-07T14:44:33.459Z,78.2
2019-05-07T14:49:31.725Z,79.1
2019-05-07T14:54:27.157Z,78.5
2019-05-07T14:59:24.090Z,78.9
2019-05-07T15:04:22.125Z,77.8
2019-05-07T15:09:17.581Z,77.8
2019-05-07T15:14:14.474Z,78.5
2019-05-07T15:19:12.421Z,79.3
2019-05-07T15:24:08.202Z,81
2019-05-07T15:29:04.953Z,79.4
2019-05-07T15:34:02.885Z,80.8
2019-05-07T15:38:58.619Z,80
2019-05-07T15:43:55.243Z,83.2
2019-05-07T15:48:52.585Z,82
2019-05-07T15:53:49.115Z,83.4
2019-05-07T15:58:46.010Z,83.5
2019-05-07T16:03:43.092Z,83.6
2019-05-07T16:08:40.057Z,83.1
2019-05-07T16:13:37.041Z,83.4
2019-05-07T16:18:33.752Z,83.7
2019-05-07T16:23:32.449Z,83.8
2019-05-07T16:28:27.639Z,84.9
2019-05-07T16:33:24.642Z,84.4
2019-05-07T16:38:22.137Z,84.8
2019-05-07T16:43:18.567Z,86
2019-05-07T16:48:15.561Z,86
2019-05-07T16:58:12.333Z,86.6
2019-05-07T17:03:07.289Z,86.4
2019-05-07T17:08:04.332Z,87.7
2019-05-07T17:13:02.864Z,87.9
2019-05-07T17:17:57.868Z,87.3
2019-05-07T17:22:54.758Z,87.5
2019-05-07T17:27:52.098Z,87.3
2019-05-07T17:32:48.911Z,87.8
2019-05-07T17:37:45.810Z,88.3
2019-05-07T17:42:42.668Z,88.7
2019-05-07T17:47:39.588Z,88.8
2019-05-07T17:52:36.648Z,89.2
2019-05-07T17:57:34.074Z,89.1
2019-05-07T18:02:32.639Z,89.5
2019-05-07T18:07:28.262Z,89.8
2019-05-07T18:12:24.928Z,90.1
2019-05-07T18:17:22.050Z,90.2
2019-05-07T18:22:19.084Z,89.7
2019-05-07T18:27:16.121Z,89.9
2019-05-07T18:32:13.154Z,90
2019-05-07T18:37:10.017Z,90.5
2019-05-07T18:42:06.767Z,90.9
2019-05-07T18:47:03.744Z,90.8
2019-05-07T18:52:02.701Z,90.8
2019-05-07T18:56:57.725Z,91.5
2019-05-07T19:01:54.535Z,91.5
2019-05-07T19:06:51.724Z,91.6
2019-05-07T19:11:48.108Z,91.8
2019-05-07T19:16:45.061Z,91.2
2019-05-07T19:21:42.345Z,91.2
2019-05-07T19:26:39.015Z,90.2
2019-05-07T19:31:35.958Z,91.4
2019-05-07T19:36:32.704Z,91
2019-05-07T19:41:31.659Z,90.1
2019-05-07T19:46:26.671Z,89.3
2019-05-07T19:51:23.646Z,89.2
2019-05-07T19:56:21.850Z,88.5
2019-05-07T20:01:17.257Z,88.5
2019-05-07T20:06:14.033Z,88.5
2019-05-07T20:11:12.022Z,88.7
2019-05-07T20:16:07.842Z,87.8
2019-05-07T20:21:04.669Z,87.3
2019-05-07T20:26:02.922Z,88.4
2019-05-07T20:30:58.543Z,88.2
2019-05-07T20:35:55.612Z,89
2019-05-07T20:40:52.630Z,88.3
2019-05-07T20:45:49.319Z,89.5
2019-05-07T20:50:46.242Z,90
2019-05-07T20:55:43.220Z,89.9
2019-05-07T21:00:39.832Z,89.9
2019-05-07T21:05:36.484Z,89.2
2019-05-07T21:10:33.532Z,88.9
2019-05-07T21:15:32.282Z,90.2
2019-05-07T21:20:27.316Z,90.2
2019-05-07T21:25:24.211Z,89.5
2019-05-07T21:30:22.283Z,89.5
2019-05-07T21:35:17.741Z,90
2019-05-07T21:40:14.654Z,88.6
2019-05-07T21:45:11.396Z,89.6
2019-05-07T21:50:08.255Z,90.5
2019-05-07T21:55:05.283Z,90.9
2019-05-07T22:00:02.274Z,90.2
2019-05-07T22:04:59.022Z,90.4
2019-05-07T22:09:55.955Z,90.6
2019-05-07T22:14:52.874Z,90.1
2019-05-07T22:19:52.241Z,90.8
2019-05-07T22:24:49.386Z,90.7
2019-05-07T22:29:44.061Z,91.9
2019-05-07T22:34:42.244Z,91.8
2019-05-07T22:39:37.840Z,91.7
2019-05-07T22:44:34.706Z,91.5
2019-05-07T22:49:33.300Z,91.6
2019-05-07T22:54:28.622Z,91.5
2019-05-07T22:59:25.416Z,91.7
2019-05-07T23:04:22.923Z,91.9
2019-05-07T23:09:19.331Z,92.2
2019-05-07T23:14:16.019Z,92.3
2019-05-07T23:19:14.065Z,91.7
2019-05-07T23:24:09.709Z,89.6
2019-05-07T23:29:06.486Z,89.2
2019-05-07T23:34:03.232Z,90.7
2019-05-07T23:39:00.029Z,91
2019-05-07T23:43:57.000Z,91.8
2019-05-07T23:48:53.724Z,91.7
2019-05-07T23:53:51.887Z,92.4
2019-05-07T23:58:47.630Z,92.2
